Time;durP1;ratioP1;P1;durP2;ratioP2;P2;SDS_P1;SDS_P2;PMS_P1;PMS_P2;Temp;Humidity;BMP_temperature;BMP_pressure;BME280_temperature;BME280_humidity;BME280_pressure;Samples;Min_cycle;Max_cycle;Signal;HPM_P1;HPM_P2
2023/06/06 00:01:40;;;;;;;;;;;19.10;64.50;;;;;;6100286;23;19905;-90
2023/06/06 00:04:05;;;;;;;;;;;19.10;64.50;;;;;;6099611;23;19941;-90
2023/06/06 00:06:33;;;;;;;;;;;19.10;64.50;;;;;;6100320;23;19905;-90
2023/06/06 00:08:59;;;;;;;;;;;19.10;64.60;;;;;;6099602;23;19905;-90
2023/06/06 00:11:25;;;;;;;;;;;19.10;64.60;;;;;;6100008;23;19909;-90
2023/06/06 00:13:50;;;;;;;;;;;19.10;64.60;;;;;;6100094;23;20579;-90
2023/06/06 00:16:16;;;;;;;;;;;19.10;64.70;;;;;;6099938;23;20791;-90
2023/06/06 00:18:45;;;;;;;;;;;19.10;64.80;;;;;;6098267;23;19936;-90
2023/06/06 00:21:12;;;;;;;;;;;19.10;64.80;;;;;;6099965;23;19911;-90
2023/06/06 00:23:37;;;;;;;;;;;19.10;64.80;;;;;;6099502;23;19913;-90
2023/06/06 00:26:03;;;;;;;;;;;19.00;64.80;;;;;;6100106;23;20230;-89
2023/06/06 00:28:28;;;;;;;;;;;19.10;64.90;;;;;;6099255;23;20243;-90
2023/06/06 00:30:54;;;;;;;;;;;19.00;64.90;;;;;;6100410;23;19917;-90
2023/06/06 00:33:20;;;;;;;;;;;19.00;65.00;;;;;;6100242;23;19933;-90
2023/06/06 00:35:45;;;;;;;;;;;19.00;64.90;;;;;;6099072;23;19916;-90
2023/06/06 00:38:11;;;;;;;;;;;19.00;65.00;;;;;;6098896;23;19905;-90
2023/06/06 00:40:36;;;;;;;;;;;19.00;65.00;;;;;;6099553;23;20323;-90
2023/06/06 00:43:02;;;;;;;;;;;19.00;65.00;;;;;;6099648;23;19921;-90
2023/06/06 00:45:27;;;;;;;;;;;19.00;65.00;;;;;;6099336;23;19912;-90
2023/06/06 00:47:53;;;;;;;;;;;19.00;65.00;;;;;;6099832;23;19912;-90
2023/06/06 00:50:21;;;;;;;;;;;19.00;65.10;;;;;;6098081;23;19911;-90
2023/06/06 00:52:49;;;;;;;;;;;19.00;65.00;;;;;;6125559;23;19909;-90
2023/06/06 00:55:16;;;;;;;;;;;19.00;65.00;;;;;;6099782;23;19909;-90
2023/06/06 00:57:43;;;;;;;;;;;19.00;65.00;;;;;;6100655;23;19909;-90
2023/06/06 01:00:10;;;;;;;;;;;19.00;65.10;;;;;;6099974;23;19984;-91
2023/06/06 01:02:37;;;;;;;;;;;19.00;65.10;;;;;;6101344;23;19905;-90
2023/06/06 01:05:09;;;;;;;;;;;18.90;65.00;;;;;;6102180;23;19909;-89
2023/06/06 01:07:37;;;;;;;;;;;18.90;65.10;;;;;;6101539;23;19916;-90
2023/06/06 01:10:05;;;;;;;;;;;18.90;65.00;;;;;;6101200;23;20267;-89
2023/06/06 01:12:43;;;;;;;;;;;18.90;64.80;;;;;;6125451;23;19940;-90
2023/06/06 01:15:23;;;;;;;;;;;18.90;65.10;;;;;;6098862;23;19984;-89
2023/06/06 01:17:49;;;;;;;;;;;18.90;65.00;;;;;;6098631;23;19905;-90
2023/06/06 01:20:15;;;;;;;;;;;18.90;64.90;;;;;;6125161;23;19912;-90
2023/06/06 01:22:43;;;;;;;;;;;18.90;65.10;;;;;;6100771;23;19912;-90
2023/06/06 01:25:09;;;;;;;;;;;18.90;65.10;;;;;;6099135;23;20273;-90
2023/06/06 01:27:35;;;;;;;;;;;18.90;64.80;;;;;;6098361;23;19936;-90
2023/06/06 01:30:02;;;;;;;;;;;18.90;65.00;;;;;;6096994;23;19956;-90
2023/06/06 01:32:30;;;;;;;;;;;18.90;64.60;;;;;;6099451;23;19920;-90
2023/06/06 01:35:07;;;;;;;;;;;18.90;64.90;;;;;;6099402;23;19905;-90
2023/06/06 01:37:45;;;;;;;;;;;18.90;65.10;;;;;;6099178;23;19913;-90
2023/06/06 01:40:11;;;;;;;;;;;18.80;64.90;;;;;;6098824;23;19909;-90
2023/06/06 01:42:38;;;;;;;;;;;18.80;64.90;;;;;;6099294;23;19928;-90
2023/06/06 01:45:05;;;;;;;;;;;18.80;64.70;;;;;;6099486;23;19968;-90
2023/06/06 01:47:31;;;;;;;;;;;18.80;64.80;;;;;;6125068;23;19905;-90
2023/06/06 01:49:57;;;;;;;;;;;18.80;65.00;;;;;;6098600;23;19944;-90
2023/06/06 01:52:28;;;;;;;;;;;18.80;64.90;;;;;;6124742;23;19905;-90
2023/06/06 01:54:54;;;;;;;;;;;18.80;64.60;;;;;;6099494;23;19961;-90
2023/06/06 01:57:20;;;;;;;;;;;18.80;64.70;;;;;;6124217;23;19952;-90
2023/06/06 01:59:45;;;;;;;;;;;18.80;64.50;;;;;;6098425;23;19905;-90
2023/06/06 02:02:11;;;;;;;;;;;18.80;64.60;;;;;;6123928;23;19905;-90
2023/06/06 02:04:37;;;;;;;;;;;18.70;65.00;;;;;;6099132;23;20032;-90
2023/06/06 02:07:03;;;;;;;;;;;18.70;64.70;;;;;;6098862;23;19936;-90
2023/06/06 02:09:28;;;;;;;;;;;18.70;64.40;;;;;;6098855;23;20318;-90
2023/06/06 02:11:54;;;;;;;;;;;18.70;64.60;;;;;;6098995;23;19935;-90
2023/06/06 02:14:19;;;;;;;;;;;18.70;65.00;;;;;;6098838;23;19909;-90
2023/06/06 02:16:48;;;;;;;;;;;18.70;64.70;;;;;;6124920;23;19913;-90
2023/06/06 02:19:14;;;;;;;;;;;18.80;64.90;;;;;;6098285;23;19909;-90
2023/06/06 02:21:39;;;;;;;;;;;18.70;64.40;;;;;;6099164;23;20307;-89
2023/06/06 02:24:05;;;;;;;;;;;18.70;64.80;;;;;;6095010;23;19908;-90
2023/06/06 02:26:31;;;;;;;;;;;18.70;64.50;;;;;;6097389;23;19909;-90
2023/06/06 02:28:57;;;;;;;;;;;18.70;64.60;;;;;;6098372;23;19964;-90
2023/06/06 02:31:26;;;;;;;;;;;18.70;64.40;;;;;;6097584;23;19924;-90
2023/06/06 02:33:54;;;;;;;;;;;18.70;64.50;;;;;;6097843;23;19960;-90
2023/06/06 02:36:20;;;;;;;;;;;18.70;64.70;;;;;;6097344;23;19921;-90
2023/06/06 02:38:45;;;;;;;;;;;18.70;64.80;;;;;;6097348;23;19987;-91
2023/06/06 02:41:11;;;;;;;;;;;18.70;64.50;;;;;;6097096;23;19905;-90
2023/06/06 02:43:39;;;;;;;;;;;18.60;64.20;;;;;;6097873;23;19909;-90
2023/06/06 02:46:04;;;;;;;;;;;18.60;64.30;;;;;;6097556;23;19905;-90
2023/06/06 02:48:30;;;;;;;;;;;18.60;64.50;;;;;;6096963;23;19913;-90
2023/06/06 02:50:55;;;;;;;;;;;18.60;64.40;;;;;;6097371;23;19905;-90
2023/06/06 02:53:21;;;;;;;;;;;18.60;64.20;;;;;;6123970;23;19913;-91
2023/06/06 02:55:47;;;;;;;;;;;18.60;64.50;;;;;;6098090;23;19924;-90
2023/06/06 02:58:27;;;;;;;;;;;18.60;64.50;;;;;;6097260;23;19947;-90
2023/06/06 03:00:53;;;;;;;;;;;18.60;64.40;;;;;;6097482;23;19992;-91
2023/06/06 03:03:18;;;;;;;;;;;18.60;64.50;;;;;;6096661;23;19960;-91
2023/06/06 03:05:45;;;;;;;;;;;18.60;64.70;;;;;;6123907;23;19909;-90
2023/06/06 03:08:14;;;;;;;;;;;18.60;64.60;;;;;;6122843;23;19905;-90
2023/06/06 03:10:39;;;;;;;;;;;18.60;64.30;;;;;;6097237;23;19909;-91
2023/06/06 03:13:05;;;;;;;;;;;18.60;64.40;;;;;;6097223;23;19980;-91
2023/06/06 03:15:30;;;;;;;;;;;18.50;64.40;;;;;;6097340;23;20411;-90
2023/06/06 03:17:56;;;;;;;;;;;18.50;64.30;;;;;;6097535;23;19905;-91
2023/06/06 03:20:21;;;;;;;;;;;18.50;64.50;;;;;;6097077;23;19909;-91
2023/06/06 03:22:47;;;;;;;;;;;18.50;64.60;;;;;;6096445;23;19988;-91
2023/06/06 03:25:13;;;;;;;;;;;18.50;64.20;;;;;;6123571;23;19972;-89
2023/06/06 03:27:41;;;;;;;;;;;18.50;64.40;;;;;;6097826;23;19912;-91
2023/06/06 03:30:07;;;;;;;;;;;18.50;64.30;;;;;;6098653;23;19992;-91
2023/06/06 03:32:32;;;;;;;;;;;18.50;64.50;;;;;;6015105;23;1995876;-91
2023/06/06 03:34:58;;;;;;;;;;;18.50;64.40;;;;;;6100760;23;19905;-91
2023/06/06 03:37:24;;;;;;;;;;;18.50;64.50;;;;;;6126153;23;19983;-91
2023/06/06 03:39:49;;;;;;;;;;;18.50;64.70;;;;;;6101005;23;20332;-91
2023/06/06 03:42:15;;;;;;;;;;;18.50;64.60;;;;;;6100314;23;19905;-91
2023/06/06 03:44:42;;;;;;;;;;;18.50;64.60;;;;;;6100805;23;19976;-90
2023/06/06 03:47:08;;;;;;;;;;;18.50;64.50;;;;;;6100851;23;19905;-91
2023/06/06 03:49:36;;;;;;;;;;;18.50;64.50;;;;;;6100101;23;19905;-90
2023/06/06 03:52:02;;;;;;;;;;;18.50;64.70;;;;;;6100044;23;19937;-90
2023/06/06 03:54:28;;;;;;;;;;;18.50;64.60;;;;;;6099019;23;19916;-91
2023/06/06 03:56:54;;;;;;;;;;;18.50;64.90;;;;;;6125646;23;19920;-91
2023/06/06 03:59:19;;;;;;;;;;;18.50;64.70;;;;;;6099880;23;20249;-91
2023/06/06 04:01:45;;;;;;;;;;;18.50;64.60;;;;;;6100543;23;19909;-91
2023/06/06 04:04:15;;;;;;;;;;;18.40;64.90;;;;;;6100252;23;19939;-91
2023/06/06 04:06:41;;;;;;;;;;;18.50;64.70;;;;;;6100765;23;19988;-91
2023/06/06 04:09:10;;;;;;;;;;;18.50;64.70;;;;;;6099725;23;19909;-91
2023/06/06 04:11:36;;;;;;;;;;;18.40;64.70;;;;;;6100115;23;19916;-91
2023/06/06 04:14:02;;;;;;;;;;;18.40;65.00;;;;;;6100132;23;19905;-91
2023/06/06 04:16:30;;;;;;;;;;;18.40;65.50;;;;;;6100588;23;19924;-91
2023/06/06 04:18:56;;;;;;;;;;;18.40;64.70;;;;;;6099290;23;19911;-91
2023/06/06 04:21:22;;;;;;;;;;;18.40;64.80;;;;;;6099581;23;19944;-91
2023/06/06 04:23:47;;;;;;;;;;;18.40;65.00;;;;;;6099424;23;19904;-91
2023/06/06 04:26:23;;;;;;;;;;;18.40;65.00;;;;;;6099830;23;19909;-91
2023/06/06 04:28:53;;;;;;;;;;;18.40;64.90;;;;;;6099818;23;20342;-91
2023/06/06 04:31:23;;;;;;;;;;;18.40;64.80;;;;;;6113446;23;19913;-92
2023/06/06 04:33:54;;;;;;;;;;;18.40;65.00;;;;;;6071122;23;19912;-91
2023/06/06 04:36:21;;;;;;;;;;;18.40;65.10;;;;;;6069954;23;20331;-91
2023/06/06 04:38:48;;;;;;;;;;;18.40;65.00;;;;;;6070776;23;19905;-91
2023/06/06 04:41:20;;;;;;;;;;;18.40;65.10;;;;;;6070991;23;19912;-91
2023/06/06 04:43:49;;;;;;;;;;;18.40;65.00;;;;;;6070769;23;19905;-91
2023/06/06 04:46:21;;;;;;;;;;;18.40;65.00;;;;;;6071240;23;20406;-91
2023/06/06 04:48:53;;;;;;;;;;;18.40;65.10;;;;;;6070758;23;19905;-91
2023/06/06 04:51:20;;;;;;;;;;;18.40;65.40;;;;;;6095939;23;19906;-91
2023/06/06 04:53:46;;;;;;;;;;;18.40;65.40;;;;;;6070208;23;19906;-90
2023/06/06 04:56:12;;;;;;;;;;;18.40;65.20;;;;;;6095965;23;19954;-90
2023/06/06 04:58:38;;;;;;;;;;;18.40;65.50;;;;;;6071071;23;19910;-91
2023/06/06 05:01:04;;;;;;;;;;;18.40;65.50;;;;;;6070275;23;19937;-91
2023/06/06 05:03:31;;;;;;;;;;;18.40;65.70;;;;;;6095446;23;19912;-91
2023/06/06 05:05:57;;;;;;;;;;;18.40;65.60;;;;;;6069952;23;19944;-89
2023/06/06 05:08:22;;;;;;;;;;;18.40;65.70;;;;;;6070773;23;19905;-90
2023/06/06 05:10:48;;;;;;;;;;;18.40;65.80;;;;;;6070320;23;19920;-90
2023/06/06 05:13:17;;;;;;;;;;;18.40;65.80;;;;;;6070327;23;19926;-89
2023/06/06 05:15:42;;;;;;;;;;;18.50;65.90;;;;;;6069420;23;20039;-91
2023/06/06 05:18:08;;;;;;;;;;;18.50;66.00;;;;;;6095992;23;19956;-90
2023/06/06 05:20:33;;;;;;;;;;;18.50;66.10;;;;;;6069920;23;19932;-90
2023/06/06 05:22:59;;;;;;;;;;;18.50;66.20;;;;;;6070841;23;19905;-91
2023/06/06 05:25:25;;;;;;;;;;;18.50;66.30;;;;;;6070756;23;19913;-91
2023/06/06 05:27:52;;;;;;;;;;;18.50;66.30;;;;;;6070888;23;19905;-89
2023/06/06 05:30:17;;;;;;;;;;;18.50;66.40;;;;;;6070624;23;19909;-90
2023/06/06 05:32:43;;;;;;;;;;;18.80;66.60;;;;;;6099181;23;19944;-90
2023/06/06 05:35:08;;;;;;;;;;;18.50;66.60;;;;;;6124714;23;19936;-90
2023/06/06 05:37:34;;;;;;;;;;;18.90;67.10;;;;;;6099455;23;19912;-92
2023/06/06 05:39:59;;;;;;;;;;;18.60;66.80;;;;;;6099908;23;19905;-90
2023/06/06 05:42:25;;;;;;;;;;;18.60;67.10;;;;;;6099862;23;19913;-90
2023/06/06 05:44:51;;;;;;;;;;;18.60;67.10;;;;;;6124712;23;20316;-90
2023/06/06 05:47:16;;;;;;;;;;;19.10;67.40;;;;;;6124888;23;19912;-91
2023/06/06 05:49:42;;;;;;;;;;;18.60;67.00;;;;;;6098939;23;19932;-90
2023/06/06 05:52:08;;;;;;;;;;;18.60;67.00;;;;;;6099735;23;19909;-90
2023/06/06 05:54:34;;;;;;;;;;;18.80;67.30;;;;;;6099424;23;20323;-90
2023/06/06 05:57:00;;;;;;;;;;;18.70;67.20;;;;;;6125191;23;19913;-90
2023/06/06 05:59:26;;;;;;;;;;;18.70;66.90;;;;;;6099130;23;19935;-92
2023/06/06 06:01:52;;;;;;;;;;;18.70;67.10;;;;;;6099268;23;19905;-90
2023/06/06 06:04:18;;;;;;;;;;;18.70;67.10;;;;;;6124225;23;19964;-90
2023/06/06 06:06:46;;;;;;;;;;;18.80;67.40;;;;;;6098027;23;19987;-91
2023/06/06 06:09:13;;;;;;;;;;;18.80;67.30;;;;;;6124364;23;19912;-89
2023/06/06 06:11:39;;;;;;;;;;;18.80;67.30;;;;;;6098892;23;20051;-90
2023/06/06 06:14:04;;;;;;;;;;;18.90;67.40;;;;;;6098617;23;20315;-91
2023/06/06 06:16:30;;;;;;;;;;;18.80;67.30;;;;;;6098488;23;19952;-91
2023/06/06 06:18:55;;;;;;;;;;;18.90;67.30;;;;;;6098587;23;19913;-90
2023/06/06 06:21:21;;;;;;;;;;;18.90;67.20;;;;;;6099295;23;19905;-91
2023/06/06 06:23:49;;;;;;;;;;;18.90;67.30;;;;;;6123955;23;19912;-91
2023/06/06 06:26:14;;;;;;;;;;;19.00;67.20;;;;;;6098948;23;19905;-90
2023/06/06 06:28:40;;;;;;;;;;;19.00;67.30;;;;;;6124660;23;19908;-92
2023/06/06 06:31:05;;;;;;;;;;;19.00;67.30;;;;;;6099473;23;19913;-91
2023/06/06 06:33:33;;;;;;;;;;;19.00;67.50;;;;;;6099029;23;20230;-91
2023/06/06 06:35:59;;;;;;;;;;;19.10;67.40;;;;;;6124613;23;19913;-90
2023/06/06 06:38:25;;;;;;;;;;;19.10;67.40;;;;;;6099016;23;19952;-90
2023/06/06 06:40:50;;;;;;;;;;;19.10;67.40;;;;;;6099039;23;19988;-90
2023/06/06 06:43:16;;;;;;;;;;;19.40;67.50;;;;;;6098911;23;19912;-90
2023/06/06 06:45:41;;;;;;;;;;;19.20;67.30;;;;;;6095254;23;20481;-89
2023/06/06 06:48:07;;;;;;;;;;;19.20;67.20;;;;;;6097869;23;19932;-90
2023/06/06 06:50:32;;;;;;;;;;;19.50;67.20;;;;;;6098005;23;19905;-89
2023/06/06 06:52:58;;;;;;;;;;;19.30;67.00;;;;;;6117490;23;20495;-90
2023/06/06 06:55:25;;;;;;;;;;;19.30;66.70;;;;;;6097384;23;19905;-90
2023/06/06 06:57:53;;;;;;;;;;;19.40;66.70;;;;;;6097447;23;19905;-90
2023/06/06 07:00:22;;;;;;;;;;;19.40;66.50;;;;;;6118087;23;19913;-89
2023/06/06 07:02:47;;;;;;;;;;;19.40;66.50;;;;;;6098895;23;19909;-89
2023/06/06 07:05:17;;;;;;;;;;;19.70;66.50;;;;;;6100962;23;20331;-89
2023/06/06 07:07:46;;;;;;;;;;;19.50;66.10;;;;;;6099880;23;19912;-89
2023/06/06 07:10:13;;;;;;;;;;;19.60;66.10;;;;;;6099359;23;19979;-88
2023/06/06 07:12:38;;;;;;;;;;;19.60;65.90;;;;;;6101107;23;19911;-90
2023/06/06 07:15:04;;;;;;;;;;;19.60;65.80;;;;;;6099975;23;20304;-91
2023/06/06 07:17:30;;;;;;;;;;;19.70;65.60;;;;;;6099621;23;19923;-90
2023/06/06 07:19:57;;;;;;;;;;;19.70;65.50;;;;;;6125754;23;19952;-90
2023/06/06 07:22:23;;;;;;;;;;;19.70;65.30;;;;;;6099868;23;19912;-92
2023/06/06 07:24:48;;;;;;;;;;;19.70;65.20;;;;;;6100038;23;19905;-91
2023/06/06 07:27:15;;;;;;;;;;;19.70;65.10;;;;;;6125897;23;20376;-90
2023/06/06 07:29:41;;;;;;;;;;;19.80;65.10;;;;;;6124814;23;19905;-90
2023/06/06 07:32:06;;;;;;;;;;;19.80;65.00;;;;;;6096864;23;20281;-90
2023/06/06 07:34:32;;;;;;;;;;;19.90;64.80;;;;;;6098670;23;19995;-91
2023/06/06 07:36:59;;;;;;;;;;;19.90;64.80;;;;;;6125320;23;19917;-91
2023/06/06 07:39:25;;;;;;;;;;;19.90;64.60;;;;;;6099980;23;19905;-90
2023/06/06 07:41:50;;;;;;;;;;;20.00;64.60;;;;;;6126494;23;19995;-91
2023/06/06 07:44:18;;;;;;;;;;;20.00;64.40;;;;;;6099124;23;19904;-90
2023/06/06 07:46:44;;;;;;;;;;;20.00;64.30;;;;;;6100079;23;19911;-90
2023/06/06 07:49:09;;;;;;;;;;;20.10;64.30;;;;;;6098860;23;19940;-91
2023/06/06 07:51:37;;;;;;;;;;;20.10;64.20;;;;;;6100007;23;19956;-91
2023/06/06 07:54:03;;;;;;;;;;;20.20;64.10;;;;;;6101042;23;19912;-91
2023/06/06 07:56:30;;;;;;;;;;;20.10;63.90;;;;;;6124875;23;19913;-90
2023/06/06 07:58:59;;;;;;;;;;;20.20;63.90;;;;;;6098897;23;19987;-90
2023/06/06 08:01:25;;;;;;;;;;;20.20;63.80;;;;;;6099726;23;19967;-90
2023/06/06 08:03:52;;;;;;;;;;;20.30;63.80;;;;;;6099934;23;19905;-91
2023/06/06 08:06:18;;;;;;;;;;;20.30;63.70;;;;;;6099414;23;19904;-90
2023/06/06 08:08:46;;;;;;;;;;;20.30;63.60;;;;;;6099316;23;20398;-90
2023/06/06 08:11:19;;;;;;;;;;;20.40;63.60;;;;;;6099358;23;19940;-90
2023/06/06 08:13:45;;;;;;;;;;;20.40;63.50;;;;;;6099850;23;19944;-90
2023/06/06 08:16:10;;;;;;;;;;;20.40;63.30;;;;;;6099547;23;19936;-89
2023/06/06 08:18:39;;;;;;;;;;;20.50;63.30;;;;;;6098883;23;19976;-90
2023/06/06 08:21:05;;;;;;;;;;;20.50;63.20;;;;;;6099501;23;19905;-89
2023/06/06 08:23:31;;;;;;;;;;;20.50;63.30;;;;;;6100481;23;20325;-90
2023/06/06 08:25:57;;;;;;;;;;;20.50;63.20;;;;;;6099086;23;19905;-89
2023/06/06 08:28:23;;;;;;;;;;;20.50;63.00;;;;;;6124868;23;19915;-90
2023/06/06 08:30:52;;;;;;;;;;;20.50;63.00;;;;;;6099461;23;19948;-89
2023/06/06 08:33:18;;;;;;;;;;;20.60;63.00;;;;;;6099644;23;19913;-89
2023/06/06 08:35:44;;;;;;;;;;;20.60;62.80;;;;;;6098568;23;20694;-90
2023/06/06 08:38:10;;;;;;;;;;;20.70;62.80;;;;;;6099152;23;19984;-90
2023/06/06 08:40:36;;;;;;;;;;;20.70;62.70;;;;;;6098268;23;19911;-90
2023/06/06 08:43:03;;;;;;;;;;;20.70;62.60;;;;;;6125507;23;19912;-89
2023/06/06 08:45:28;;;;;;;;;;;20.70;62.50;;;;;;6098972;23;20237;-90
2023/06/06 08:47:54;;;;;;;;;;;20.70;63.10;;;;;;6099128;23;19928;-89
2023/06/06 08:50:21;;;;;;;;;;;20.70;62.30;;;;;;6098739;23;19909;-89
2023/06/06 08:52:46;;;;;;;;;;;20.80;62.30;;;;;;6099006;23;19909;-90
2023/06/06 08:55:12;;;;;;;;;;;20.70;62.20;;;;;;6100658;23;19905;-90
2023/06/06 08:57:41;;;;;;;;;;;21.10;62.40;;;;;;6100703;23;19913;-90
2023/06/06 09:00:21;;;;;;;;;;;20.80;62.10;;;;;;6100516;23;19953;-91
2023/06/06 09:02:47;;;;;;;;;;;20.80;62.10;;;;;;6101747;23;19948;-90
2023/06/06 09:05:13;;;;;;;;;;;20.80;62.00;;;;;;6101455;23;19905;-91
2023/06/06 09:07:40;;;;;;;;;;;20.80;61.90;;;;;;6099742;23;19912;-91
2023/06/06 09:10:06;;;;;;;;;;;20.90;61.80;;;;;;6101508;23;19905;-91
2023/06/06 09:12:41;;;;;;;;;;;20.90;61.70;;;;;;6101356;23;19905;-91
2023/06/06 09:15:07;;;;;;;;;;;20.90;61.70;;;;;;6101814;23;19909;-91
2023/06/06 09:17:36;;;;;;;;;;;20.90;61.60;;;;;;6100717;23;19913;-91
2023/06/06 09:20:09;;;;;;;;;;;20.90;61.50;;;;;;6099579;23;19912;-92
2023/06/06 09:22:42;;;;;;;;;;;20.90;61.50;;;;;;6126069;23;20231;-90
2023/06/06 09:25:24;;;;;;;;;;;21.00;61.60;;;;;;6100430;23;20250;-91
2023/06/06 09:27:56;;;;;;;;;;;20.90;61.50;;;;;;6100104;23;19964;-90
2023/06/06 09:30:23;;;;;;;;;;;21.00;61.50;;;;;;6098218;23;19909;-91
2023/06/06 09:32:58;;;;;;;;;;;20.90;61.40;;;;;;6070077;23;19964;-91
2023/06/06 09:35:29;;;;;;;;;;;21.00;61.50;;;;;;6095695;23;19906;-91
2023/06/06 09:37:54;;;;;;;;;;;21.00;61.40;;;;;;6070528;23;19932;-90
2023/06/06 09:40:20;;;;;;;;;;;21.00;61.40;;;;;;6070323;23;20551;-91
2023/06/06 09:42:47;;;;;;;;;;;21.00;61.30;;;;;;6070419;23;19944;-91
2023/06/06 09:45:16;;;;;;;;;;;21.00;61.20;;;;;;6070948;23;19984;-91
2023/06/06 09:47:42;;;;;;;;;;;21.00;61.30;;;;;;6071211;23;19910;-91
2023/06/06 09:50:08;;;;;;;;;;;21.00;61.20;;;;;;6070385;23;20243;-91
2023/06/06 09:52:34;;;;;;;;;;;21.00;61.20;;;;;;6070843;23;19938;-91
2023/06/06 09:55:00;;;;;;;;;;;21.00;61.20;;;;;;6070439;23;19976;-90
2023/06/06 09:57:26;;;;;;;;;;;21.00;61.10;;;;;;6095544;23;19999;-91
2023/06/06 09:59:53;;;;;;;;;;;21.10;61.20;;;;;;6094901;23;19906;-91
2023/06/06 10:02:19;;;;;;;;;;;21.10;61.20;;;;;;6070399;23;19909;-91
2023/06/06 10:04:46;;;;;;;;;;;21.10;61.10;;;;;;6095239;23;19913;-91
2023/06/06 10:07:12;;;;;;;;;;;21.10;61.00;;;;;;6095990;23;19928;-91
2023/06/06 10:09:38;;;;;;;;;;;21.10;61.10;;;;;;6094870;23;19909;-91
2023/06/06 10:12:04;;;;;;;;;;;21.10;61.10;;;;;;6070183;23;19906;-90
2023/06/06 10:14:30;;;;;;;;;;;21.10;61.10;;;;;;6069239;23;20343;-91
2023/06/06 10:16:55;;;;;;;;;;;21.00;61.70;;;;;;6070570;23;19914;-91
2023/06/06 10:19:21;;;;;;;;;;;21.10;61.00;;;;;;6069303;23;19909;-91
2023/06/06 10:21:47;;;;;;;;;;;21.00;61.00;;;;;;6070252;23;20307;-91
2023/06/06 10:24:13;;;;;;;;;;;21.00;61.00;;;;;;6070082;23;19906;-90
2023/06/06 10:26:44;;;;;;;;;;;21.00;61.10;;;;;;6070320;23;19933;-91
2023/06/06 10:29:16;;;;;;;;;;;21.00;61.10;;;;;;6070178;23;19910;-91
2023/06/06 10:31:47;;;;;;;;;;;21.00;61.20;;;;;;6095650;23;19936;-91
2023/06/06 10:34:16;;;;;;;;;;;21.00;61.20;;;;;;6070351;23;19937;-91
2023/06/06 10:36:43;;;;;;;;;;;20.90;61.20;;;;;;6071397;23;20011;-90
2023/06/06 10:39:18;;;;;;;;;;;20.90;61.20;;;;;;6071086;23;19905;-90
2023/06/06 10:41:53;;;;;;;;;;;20.90;61.30;;;;;;6071942;23;19909;-90
2023/06/06 10:44:19;;;;;;;;;;;20.90;61.30;;;;;;6071923;23;19909;-91
2023/06/06 10:46:47;;;;;;;;;;;20.90;61.40;;;;;;6072485;23;19905;-90
2023/06/06 10:49:13;;;;;;;;;;;20.80;61.30;;;;;;6072004;23;19909;-90
2023/06/06 10:51:39;;;;;;;;;;;20.80;61.40;;;;;;6071875;23;19905;-90
2023/06/06 10:54:18;;;;;;;;;;;20.80;61.40;;;;;;6072916;23;19905;-91
2023/06/06 10:56:54;;;;;;;;;;;20.80;61.50;;;;;;6073106;23;19917;-91
2023/06/06 10:59:26;;;;;;;;;;;20.70;61.50;;;;;;6073444;23;19942;-91
2023/06/06 11:01:53;;;;;;;;;;;20.70;62.50;;;;;;6074306;23;19905;-89
2023/06/06 11:04:20;;;;;;;;;;;20.70;61.80;;;;;;6073964;23;19906;-90
2023/06/06 11:06:52;;;;;;;;;;;20.70;61.80;;;;;;6072812;23;19906;-90
2023/06/06 11:09:22;;;;;;;;;;;20.70;61.90;;;;;;6072218;23;19955;-90
2023/06/06 11:12:07;;;;;;;;;;;20.70;62.00;;;;;;6072075;23;19920;-90
2023/06/06 11:14:53;;;;;;;;;;;20.60;62.00;;;;;;6096780;23;19911;-88
2023/06/06 11:17:18;;;;;;;;;;;20.60;62.00;;;;;;6072030;23;19960;-90
2023/06/06 11:19:44;;;;;;;;;;;20.60;62.10;;;;;;6071367;23;19960;-91
2023/06/06 11:22:19;;;;;;;;;;;20.60;62.10;;;;;;6070893;23;20337;-89
2023/06/06 11:24:45;;;;;;;;;;;20.60;62.20;;;;;;6071710;23;19945;-90
2023/06/06 11:27:10;;;;;;;;;;;20.50;62.10;;;;;;6070941;23;19905;-89
2023/06/06 11:29:36;;;;;;;;;;;20.50;62.10;;;;;;6071451;23;19909;-90
2023/06/06 11:32:02;;;;;;;;;;;20.50;62.20;;;;;;6071584;23;19914;-90
2023/06/06 11:34:32;;;;;;;;;;;20.50;62.20;;;;;;6070729;23;19909;-91
2023/06/06 11:36:58;;;;;;;;;;;20.50;62.20;;;;;;6096059;23;19913;-90
2023/06/06 11:39:26;;;;;;;;;;;20.50;62.10;;;;;;6071332;23;19948;-90
2023/06/06 11:41:51;;;;;;;;;;;20.50;62.20;;;;;;6096268;23;19912;-90
2023/06/06 11:44:17;;;;;;;;;;;20.50;62.30;;;;;;6071624;23;19905;-90
2023/06/06 11:46:44;;;;;;;;;;;20.40;62.10;;;;;;6070893;23;19909;-90
2023/06/06 11:49:10;;;;;;;;;;;20.40;62.10;;;;;;6070866;23;19905;-90
2023/06/06 11:51:36;;;;;;;;;;;20.40;62.20;;;;;;6096770;23;19942;-90
2023/06/06 11:54:17;;;;;;;;;;;20.40;62.20;;;;;;6071672;23;19913;-90
2023/06/06 11:56:43;;;;;;;;;;;20.40;62.20;;;;;;6070863;23;20007;-89
2023/06/06 11:59:11;;;;;;;;;;;20.40;62.20;;;;;;6071279;23;19984;-90
2023/06/06 12:01:36;;;;;;;;;;;20.40;62.20;;;;;;6071735;23;19912;-90
2023/06/06 12:04:04;;;;;;;;;;;20.40;62.20;;;;;;6096491;23;20382;-89
2023/06/06 12:06:30;;;;;;;;;;;20.40;62.20;;;;;;6070482;23;19906;-90
2023/06/06 12:08:56;;;;;;;;;;;20.40;62.20;;;;;;6071663;23;19912;-89
2023/06/06 12:11:29;;;;;;;;;;;20.30;62.20;;;;;;6071810;23;19905;-90
2023/06/06 12:13:56;;;;;;;;;;;20.30;62.10;;;;;;6071672;23;19968;-90
2023/06/06 12:16:22;;;;;;;;;;;20.30;62.10;;;;;;6071859;23;19936;-89
2023/06/06 12:18:48;;;;;;;;;;;20.30;62.20;;;;;;6070193;23;19913;-90
2023/06/06 12:21:16;;;;;;;;;;;20.30;62.20;;;;;;6070954;23;19905;-89
2023/06/06 12:23:43;;;;;;;;;;;20.30;62.30;;;;;;6070857;23;19957;-89
2023/06/06 12:26:11;;;;;;;;;;;20.30;62.30;;;;;;6096148;23;19992;-90
2023/06/06 12:28:57;;;;;;;;;;;20.30;62.40;;;;;;6070245;23;19905;-90
2023/06/06 12:31:24;;;;;;;;;;;20.30;62.40;;;;;;6096571;23;19988;-90
2023/06/06 12:33:51;;;;;;;;;;;20.20;62.40;;;;;;6095123;23;19916;-89
2023/06/06 12:36:17;;;;;;;;;;;20.20;62.40;;;;;;6069863;23;19917;-89
2023/06/06 12:38:44;;;;;;;;;;;20.20;62.60;;;;;;6069945;23;20374;-89
2023/06/06 12:41:09;;;;;;;;;;;20.20;62.60;;;;;;6071723;23;19988;-90
2023/06/06 12:43:35;;;;;;;;;;;20.20;62.60;;;;;;6070895;23;19940;-89
2023/06/06 12:46:00;;;;;;;;;;;20.20;62.60;;;;;;6069968;23;20254;-89
2023/06/06 12:48:26;;;;;;;;;;;20.20;62.70;;;;;;6069676;23;20679;-89
2023/06/06 12:50:51;;;;;;;;;;;20.20;62.60;;;;;;6070929;23;19995;-89
2023/06/06 12:53:19;;;;;;;;;;;20.20;62.60;;;;;;6095594;23;19915;-90
2023/06/06 12:55:45;;;;;;;;;;;20.20;62.60;;;;;;6070020;23;19937;-89
2023/06/06 12:58:11;;;;;;;;;;;20.20;62.70;;;;;;6070391;23;19905;-90
2023/06/06 13:00:38;;;;;;;;;;;20.20;63.40;;;;;;6070154;23;19906;-90
2023/06/06 13:03:05;;;;;;;;;;;20.10;62.60;;;;;;6069858;23;19905;-89
2023/06/06 13:05:31;;;;;;;;;;;20.20;62.70;;;;;;6095188;23;20319;-89
2023/06/06 13:07:56;;;;;;;;;;;20.10;62.70;;;;;;6095568;23;20041;-90
2023/06/06 13:10:22;;;;;;;;;;;20.20;63.60;;;;;;6069847;23;19905;-89
2023/06/06 13:12:49;;;;;;;;;;;20.20;62.70;;;;;;6070472;23;19981;-92
2023/06/06 13:15:15;;;;;;;;;;;20.20;62.80;;;;;;6070269;23;20496;-89
2023/06/06 13:17:41;;;;;;;;;;;20.20;62.80;;;;;;6094968;23;19924;-91
2023/06/06 13:20:08;;;;;;;;;;;20.20;62.90;;;;;;6069704;23;20315;-89
2023/06/06 13:22:34;;;;;;;;;;;20.10;62.70;;;;;;6070540;23;19959;-89
2023/06/06 13:24:59;;;;;;;;;;;20.10;62.60;;;;;;6095629;23;19913;-89
2023/06/06 13:27:25;;;;;;;;;;;20.20;62.70;;;;;;6070823;23;20304;-91
2023/06/06 13:29:51;;;;;;;;;;;20.20;62.80;;;;;;6070437;23;20231;-89
2023/06/06 13:32:16;;;;;;;;;;;20.10;62.70;;;;;;6070595;23;19973;-90
2023/06/06 13:34:42;;;;;;;;;;;20.10;62.70;;;;;;6069531;23;19909;-89
2023/06/06 13:37:08;;;;;;;;;;;20.10;62.70;;;;;;6069823;23;19924;-89
2023/06/06 13:39:33;;;;;;;;;;;20.10;62.80;;;;;;6069428;23;19913;-90
2023/06/06 13:41:59;;;;;;;;;;;20.10;62.80;;;;;;6069732;23;20390;-89
2023/06/06 13:44:24;;;;;;;;;;;20.10;62.70;;;;;;6069399;23;19933;-88
2023/06/06 13:46:50;;;;;;;;;;;20.10;62.70;;;;;;6094768;23;19913;-90
2023/06/06 13:49:19;;;;;;;;;;;20.10;62.70;;;;;;6069273;23;19906;-89
2023/06/06 13:51:45;;;;;;;;;;;20.10;62.70;;;;;;6070072;23;19934;-91
2023/06/06 13:54:11;;;;;;;;;;;20.10;62.70;;;;;;6070846;23;19905;-91
2023/06/06 13:56:40;;;;;;;;;;;20.10;62.70;;;;;;6069413;23;19921;-90
2023/06/06 13:59:06;;;;;;;;;;;20.10;62.60;;;;;;6069124;23;19905;-89
2023/06/06 14:01:31;;;;;;;;;;;20.40;62.70;;;;;;6069028;23;19932;-90
2023/06/06 14:03:57;;;;;;;;;;;20.10;62.50;;;;;;6094991;23;19905;-90
2023/06/06 14:06:23;;;;;;;;;;;20.10;62.60;;;;;;6069198;23;19928;-89
2023/06/06 14:08:49;;;;;;;;;;;20.00;62.60;;;;;;6093460;23;19985;-89
2023/06/06 14:11:15;;;;;;;;;;;20.00;62.60;;;;;;6094900;23;20307;-90
2023/06/06 14:13:41;;;;;;;;;;;20.10;62.60;;;;;;6068905;23;19961;-91
2023/06/06 14:16:07;;;;;;;;;;;20.00;62.50;;;;;;6069151;23;19914;-91